Anamoose, North Dakota
Current Conditions -  °F | °C
As of 12:35 PM on Sunday 23 Nov 2014 (Local Time) from K5H4 Reporting Station
Overcast Overcast  
Wind Chill: 14°   Ceiling: 1400
Heat Index: 27°   Visibility: 10mi
Dew Point: 23°   Wind: 16mph
Humidity: 86%   Direction: 300°WNW
Pressure: 29.46"   Gusts: 25mph
Location:  47.88°N, 100.24°W
Report Text: K5H4 231835Z AUTO 30014G22KT 10SM OVC014 M03/M05 A2946 RMK AO2
Loading
Personal Weather Stations






























Interactive Weather Map New forecast layout! Learn more

10-Day Weather Forecast

Advertisements
Track Severe Weather on mobile